Time;durP1;ratioP1;P1;durP2;ratioP2;P2;SDS_P1;SDS_P2;PMS_P1;PMS_P2;Temp;Humidity;BMP_temperature;BMP_pressure;BME280_temperature;BME280_humidity;BME280_pressure;Samples;Min_cycle;Max_cycle;Signal;HPM_P1;HPM_P2
2021/04/09 00:02:24;;;;;;;5.80;2.63;;;16.60;93.30;;;;;;5050696;28;20381;-65
2021/04/09 00:04:50;;;;;;;5.05;2.50;;;16.60;93.40;;;;;;5051664;28;20151;-64
2021/04/09 00:07:16;;;;;;;6.57;2.88;;;16.50;93.70;;;;;;5051798;28;20166;-62
2021/04/09 00:09:41;;;;;;;6.10;2.58;;;16.50;93.70;;;;;;5051953;28;20362;-66
2021/04/09 00:12:08;;;;;;;5.57;2.83;;;16.50;93.80;;;;;;5051998;28;20100;-65
2021/04/09 00:14:33;;;;;;;5.25;2.90;;;16.50;93.90;;;;;;5051593;28;20033;-66
2021/04/09 00:16:59;;;;;;;6.00;2.60;;;16.50;94.00;;;;;;5051750;28;20035;-63
2021/04/09 00:19:26;;;;;;;4.85;2.78;;;16.40;94.00;;;;;;5052528;28;20064;-63
2021/04/09 00:21:53;;;;;;;3.95;2.65;;;16.40;94.10;;;;;;5051614;28;20037;-65
2021/04/09 00:24:18;;;;;;;4.43;2.90;;;16.40;94.10;;;;;;5063368;28;20096;-65
2021/04/09 00:26:44;;;;;;;4.35;2.78;;;16.40;94.30;;;;;;5071593;28;20487;-64
2021/04/09 00:29:10;;;;;;;7.82;2.80;;;16.40;94.40;;;;;;5071877;28;20047;-66
2021/04/09 00:31:36;;;;;;;4.20;2.63;;;16.40;94.70;;;;;;5071626;28;20048;-65
2021/04/09 00:34:03;;;;;;;4.95;2.67;;;16.40;94.70;;;;;;5071564;28;20111;-64
2021/04/09 00:36:29;;;;;;;5.15;2.72;;;16.40;94.80;;;;;;5071515;28;20483;-64
2021/04/09 00:38:55;;;;;;;11.57;3.15;;;16.30;94.60;;;;;;5071464;28;20044;-63
2021/04/09 00:41:20;;;;;;;7.40;2.83;;;16.40;94.90;;;;;;5071537;28;20130;-66
2021/04/09 00:43:47;;;;;;;6.80;3.08;;;16.30;95.10;;;;;;5071545;28;20089;-62
2021/04/09 00:46:13;;;;;;;7.15;3.28;;;16.30;95.20;;;;;;5071721;28;20028;-66
2021/04/09 00:48:38;;;;;;;5.70;2.85;;;16.30;95.10;;;;;;5071890;28;20036;-66
2021/04/09 00:51:06;;;;;;;5.93;2.80;;;16.30;95.10;;;;;;5075492;28;20043;-65
2021/04/09 00:53:33;;;;;;;5.25;3.10;;;16.30;95.30;;;;;;5074449;28;20488;-66
2021/04/09 00:56:03;;;;;;;5.93;2.97;;;16.20;95.20;;;;;;5075047;28;20020;-64
2021/04/09 00:58:30;;;;;;;6.72;2.88;;;16.20;95.10;;;;;;5074435;28;20021;-67
2021/04/09 01:00:56;;;;;;;5.82;2.92;;;16.20;95.40;;;;;;5075135;28;20391;-66
2021/04/09 01:03:22;;;;;;;7.15;3.40;;;16.20;95.40;;;;;;5075090;28;20101;-65
2021/04/09 01:05:48;;;;;;;6.05;3.17;;;16.20;95.40;;;;;;5073951;28;20111;-66
2021/04/09 01:08:15;;;;;;;6.40;2.97;;;16.20;95.50;;;;;;5075511;28;20403;-66
2021/04/09 01:10:41;;;;;;;6.30;3.13;;;16.10;95.50;;;;;;5075311;28;20029;-66
2021/04/09 01:13:06;;;;;;;9.93;3.20;;;16.20;95.30;;;;;;5075072;28;20029;-66
2021/04/09 01:15:32;;;;;;;5.68;3.00;;;16.10;95.70;;;;;;5075429;28;20031;-63
2021/04/09 01:18:16;;;;;;;7.35;2.83;;;16.10;95.70;;;;;;5069056;28;20029;-62
2021/04/09 01:20:59;;;;;;;6.78;2.83;;;16.10;95.80;;;;;;5055252;28;20029;-61
2021/04/09 01:23:49;;;;;;;9.03;3.60;;;16.10;95.90;;;;;;5061250;28;20384;-61
2021/04/09 01:26:51;;;;;;;12.00;3.00;;;16.10;95.90;;;;;;5073414;28;20307;-61
2021/04/09 01:29:44;;;;;;;5.22;2.72;;;16.10;95.80;;;;;;5074641;28;20029;-61
2021/04/09 01:32:11;;;;;;;6.05;2.95;;;16.00;95.80;;;;;;5074398;28;20488;-62
2021/04/09 01:34:43;;;;;;;5.35;3.05;;;16.00;95.90;;;;;;5074591;28;20393;-66
2021/04/09 01:37:31;;;;;;;8.07;3.13;;;16.00;95.80;;;;;;5074567;28;20023;-65
2021/04/09 01:40:19;;;;;;;7.45;3.45;;;16.00;96.20;;;;;;5074554;28;20392;-62
2021/04/09 01:42:52;;;;;;;7.90;3.17;;;16.00;96.20;;;;;;5074656;28;20085;-61
2021/04/09 01:45:19;;;;;;;6.50;2.95;;;16.00;96.30;;;;;;5069699;28;20025;-62
2021/04/09 01:47:46;;;;;;;11.55;3.15;;;16.00;96.30;;;;;;5074628;28;20032;-63
2021/04/09 01:50:17;;;;;;;5.80;2.75;;;15.90;96.30;;;;;;5055401;28;20035;-61
2021/04/09 01:52:44;;;;;;;7.30;3.58;;;15.90;96.40;;;;;;5054334;28;20028;-63
2021/04/09 01:55:12;;;;;;;7.00;3.20;;;15.90;96.40;;;;;;5054158;28;20105;-61
2021/04/09 01:57:40;;;;;;;6.25;3.20;;;15.90;96.50;;;;;;5054198;28;20419;-61
2021/04/09 02:00:09;;;;;;;5.88;2.92;;;15.90;96.50;;;;;;5051933;28;20075;-62
2021/04/09 02:02:35;;;;;;;10.10;3.13;;;15.80;96.30;;;;;;5052618;28;20104;-60
2021/04/09 02:05:03;;;;;;;8.40;2.85;;;15.90;96.20;;;;;;5054028;28;20112;-61
2021/04/09 02:07:31;;;;;;;13.27;3.35;;;15.90;96.90;;;;;;5053935;28;20025;-61
2021/04/09 02:09:59;;;;;;;7.25;2.83;;;15.80;96.60;;;;;;5053762;28;20493;-62
2021/04/09 02:12:27;;;;;;;6.82;2.95;;;15.80;96.60;;;;;;5053877;28;20496;-62
2021/04/09 02:14:56;;;;;;;7.38;3.15;;;15.80;96.50;;;;;;5062505;28;20036;-61
2021/04/09 02:17:23;;;;;;;6.88;3.08;;;15.80;96.60;;;;;;5053779;28;20021;-62
2021/04/09 02:19:48;;;;;;;7.53;2.72;;;15.80;96.50;;;;;;5054044;28;20032;-61
2021/04/09 02:22:14;;;;;;;5.47;2.90;;;15.80;96.90;;;;;;5053802;28;20029;-61
2021/04/09 02:24:40;;;;;;;6.93;3.10;;;15.80;96.60;;;;;;5053656;28;20108;-61
2021/04/09 02:27:06;;;;;;;8.70;3.40;;;15.80;96.70;;;;;;5053682;28;20055;-61
2021/04/09 02:29:33;;;;;;;7.70;2.83;;;15.80;96.90;;;;;;5053505;28;20037;-61
2021/04/09 02:31:59;;;;;;;6.38;2.80;;;15.80;96.90;;;;;;5053560;28;20040;-61
2021/04/09 02:34:25;;;;;;;7.55;3.25;;;15.80;97.00;;;;;;5053480;28;20025;-60
2021/04/09 02:36:51;;;;;;;7.95;3.13;;;15.80;97.00;;;;;;5072209;28;20029;-63
2021/04/09 02:39:21;;;;;;;15.30;3.50;;;15.70;97.00;;;;;;5073628;28;20100;-63
2021/04/09 02:42:13;;;;;;;6.25;3.08;;;15.70;97.10;;;;;;5073530;28;20107;-63
2021/04/09 02:44:38;;;;;;;8.48;3.00;;;15.70;97.00;;;;;;5070807;28;20060;-63
2021/04/09 02:47:17;;;;;;;3.67;2.75;;;15.70;97.00;;;;;;5072885;28;20439;-63
2021/04/09 02:49:47;;;;;;;3.75;2.85;;;15.70;97.20;;;;;;5072964;28;20037;-62
2021/04/09 02:52:20;;;;;;;6.35;2.92;;;15.70;97.10;;;;;;5073106;28;20043;-61
2021/04/09 02:54:54;;;;;;;9.90;3.43;;;15.70;97.00;;;;;;5072633;28;20029;-62
2021/04/09 02:57:23;;;;;;;7.90;2.63;;;15.70;97.00;;;;;;5073155;28;20623;-66
2021/04/09 02:59:51;;;;;;;7.05;2.88;;;15.70;97.80;;;;;;5073026;28;20043;-67
2021/04/09 03:02:17;;;;;;;8.25;2.70;;;15.70;97.10;;;;;;5057320;28;20025;-64
2021/04/09 03:04:43;;;;;;;5.05;2.58;;;15.60;96.30;;;;;;5052984;28;20032;-66
2021/04/09 03:07:11;;;;;;;8.25;3.13;;;15.60;95.30;;;;;;5052933;28;20108;-66
2021/04/09 03:09:38;;;;;;;6.75;2.70;;;15.60;95.50;;;;;;5062191;28;20028;-64
2021/04/09 03:12:19;;;;;;;6.72;3.10;;;15.60;95.10;;;;;;5072225;28;20421;-65
2021/04/09 03:14:50;;;;;;;5.15;2.65;;;15.60;95.40;;;;;;5071703;28;20047;-65
2021/04/09 03:17:22;;;;;;;5.70;2.90;;;15.60;95.40;;;;;;5072636;28;20026;-64
2021/04/09 03:19:48;;;;;;;4.10;2.97;;;15.60;95.40;;;;;;5073001;28;20032;-66
2021/04/09 03:22:14;;;;;;;4.65;2.45;;;15.60;95.50;;;;;;5072516;28;20029;-67
2021/04/09 03:24:39;;;;;;;4.68;2.60;;;15.60;95.30;;;;;;5072453;28;20024;-66
2021/04/09 03:27:10;;;;;;;5.15;3.00;;;15.60;95.80;;;;;;5071600;28;20052;-66
2021/04/09 03:29:36;;;;;;;5.93;2.95;;;15.60;95.80;;;;;;5072507;28;20040;-66
2021/04/09 03:32:02;;;;;;;5.00;2.72;;;15.60;95.80;;;;;;5072372;28;20055;-66
2021/04/09 03:34:28;;;;;;;5.03;2.85;;;15.50;95.70;;;;;;5072386;28;20481;-62
2021/04/09 03:36:54;;;;;;;3.72;2.83;;;15.50;95.90;;;;;;5072227;28;20025;-63
2021/04/09 03:39:19;;;;;;;6.00;2.72;;;15.50;95.80;;;;;;5072575;28;20354;-62
2021/04/09 03:41:45;;;;;;;4.70;2.65;;;15.50;95.80;;;;;;5072086;28;20437;-63
2021/04/09 03:44:11;;;;;;;5.30;2.53;;;15.50;95.90;;;;;;5071968;28;20052;-62
2021/04/09 03:46:36;;;;;;;5.85;2.58;;;15.50;95.80;;;;;;5068058;28;20029;-62
2021/04/09 03:49:02;;;;;;;6.82;2.47;;;15.50;95.70;;;;;;5051943;28;20116;-63
2021/04/09 03:51:30;;;;;;;3.15;2.05;;;15.40;95.90;;;;;;5051960;28;20035;-63
2021/04/09 03:53:56;;;;;;;4.47;2.60;;;15.40;96.00;;;;;;5051899;28;20508;-62
2021/04/09 03:56:22;;;;;;;4.43;2.88;;;15.40;95.90;;;;;;5050845;28;20123;-63
2021/04/09 03:58:47;;;;;;;5.88;3.00;;;15.40;96.10;;;;;;5071641;28;20502;-62
2021/04/09 04:01:16;;;;;;;5.15;2.60;;;15.40;96.30;;;;;;5071956;28;20158;-62
2021/04/09 04:03:42;;;;;;;4.53;2.80;;;15.40;95.80;;;;;;5071963;28;20033;-62
2021/04/09 04:06:07;;;;;;;5.80;2.80;;;15.40;96.10;;;;;;5071881;28;20028;-63
2021/04/09 04:08:33;;;;;;;5.63;2.42;;;15.40;96.00;;;;;;5071720;28;20082;-62
2021/04/09 04:10:59;;;;;;;8.07;2.85;;;15.40;96.20;;;;;;5071841;28;20029;-63
2021/04/09 04:13:24;;;;;;;4.05;2.67;;;15.30;96.20;;;;;;5072117;28;20044;-62
2021/04/09 04:15:50;;;;;;;6.13;2.85;;;15.30;96.10;;;;;;5072245;28;20028;-62
2021/04/09 04:18:16;;;;;;;6.53;2.75;;;15.40;96.10;;;;;;5071807;28;20033;-63
2021/04/09 04:20:41;;;;;;;11.98;3.17;;;15.30;96.10;;;;;;5071781;28;20021;-62
2021/04/09 04:23:07;;;;;;;7.13;2.80;;;15.40;96.40;;;;;;5071274;28;20035;-62
2021/04/09 04:25:32;;;;;;;6.93;2.47;;;15.30;96.10;;;;;;5071581;28;20496;-62
2021/04/09 04:27:58;;;;;;;4.13;2.80;;;15.30;96.00;;;;;;5071156;28;20067;-62
2021/04/09 04:30:24;;;;;;;6.85;2.80;;;15.30;96.00;;;;;;5072071;28;20025;-62
2021/04/09 04:32:50;;;;;;;4.10;2.85;;;15.30;95.90;;;;;;5071780;28;20024;-63
2021/04/09 04:35:15;;;;;;;3.78;2.80;;;15.30;95.90;;;;;;5071228;28;20115;-62
2021/04/09 04:37:41;;;;;;;4.72;2.63;;;15.30;96.00;;;;;;5062022;28;20435;-63
2021/04/09 04:40:08;;;;;;;4.30;2.58;;;15.30;96.20;;;;;;5051505;28;20029;-62
2021/04/09 04:42:33;;;;;;;3.35;2.60;;;15.20;96.00;;;;;;5051522;28;20025;-61
2021/04/09 04:44:59;;;;;;;7.55;3.08;;;15.20;95.90;;;;;;5051622;28;20044;-63
2021/04/09 04:47:24;;;;;;;4.13;2.60;;;15.20;95.90;;;;;;5065035;28;20021;-62
2021/04/09 04:49:50;;;;;;;5.90;2.58;;;15.20;96.00;;;;;;5071287;28;20036;-62
2021/04/09 04:52:15;;;;;;;5.25;2.80;;;15.20;96.10;;;;;;5071486;28;20484;-65
2021/04/09 04:54:41;;;;;;;5.13;2.55;;;15.20;96.00;;;;;;5071323;28;20036;-62
2021/04/09 04:57:07;;;;;;;5.47;2.60;;;15.20;96.00;;;;;;5071270;28;20027;-61
2021/04/09 04:59:33;;;;;;;3.28;2.40;;;15.20;95.90;;;;;;5071143;28;20039;-61
2021/04/09 05:01:58;;;;;;;3.75;2.47;;;15.20;96.30;;;;;;5070624;28;20476;-62
2021/04/09 05:04:24;;;;;;;4.30;2.60;;;15.10;96.20;;;;;;5071548;28;20028;-61
2021/04/09 05:06:50;;;;;;;2.53;2.10;;;15.20;96.20;;;;;;5071415;28;20027;-61
2021/04/09 05:09:15;;;;;;;2.90;2.30;;;15.20;96.10;;;;;;5071290;28;20056;-61
2021/04/09 05:11:41;;;;;;;3.50;2.38;;;15.10;96.50;;;;;;5071330;28;20464;-66
2021/04/09 05:14:07;;;;;;;4.97;2.35;;;15.10;96.10;;;;;;5071455;28;20025;-68
2021/04/09 05:16:32;;;;;;;4.07;2.50;;;15.10;96.30;;;;;;5071338;28;20361;-65
2021/04/09 05:18:58;;;;;;;4.57;2.28;;;15.10;96.30;;;;;;5071661;28;20044;-66
2021/04/09 05:21:24;;;;;;;4.60;2.33;;;15.10;96.20;;;;;;5071386;28;20078;-68
2021/04/09 05:23:49;;;;;;;3.53;2.22;;;15.10;96.20;;;;;;5071343;28;20494;-67
2021/04/09 05:26:15;;;;;;;4.78;2.60;;;15.10;96.10;;;;;;5070879;28;20396;-65
2021/04/09 05:28:41;;;;;;;4.53;2.42;;;15.10;96.20;;;;;;5071242;28;20036;-66
2021/04/09 05:31:06;;;;;;;3.70;2.35;;;15.10;96.30;;;;;;5071309;28;20138;-67
2021/04/09 05:33:32;;;;;;;5.25;2.30;;;15.10;96.10;;;;;;5069688;28;20066;-63
2021/04/09 05:35:58;;;;;;;3.15;2.33;;;15.10;96.10;;;;;;5073962;28;20569;-62
2021/04/09 05:38:23;;;;;;;3.33;2.28;;;15.00;96.10;;;;;;5074524;28;20028;-65
2021/04/09 05:40:49;;;;;;;3.28;2.38;;;15.00;96.10;;;;;;5074665;28;20048;-66
2021/04/09 05:43:15;;;;;;;3.50;2.53;;;15.00;95.80;;;;;;5074564;28;20024;-66
2021/04/09 05:45:40;;;;;;;4.47;2.60;;;15.00;95.80;;;;;;5073228;28;20028;-66
2021/04/09 05:48:07;;;;;;;5.00;2.30;;;15.00;96.10;;;;;;5074579;28;20028;-65
2021/04/09 05:50:34;;;;;;;3.67;2.70;;;15.00;96.20;;;;;;5074421;28;20048;-65
2021/04/09 05:53:00;;;;;;;5.75;2.53;;;15.00;96.20;;;;;;5068005;28;20025;-62
2021/04/09 05:55:26;;;;;;;5.00;2.55;;;15.00;96.30;;;;;;5053040;28;20032;-62
2021/04/09 05:57:52;;;;;;;3.17;2.35;;;15.00;96.80;;;;;;5052889;28;20153;-64
2021/04/09 06:00:18;;;;;;;4.68;2.30;;;15.10;97.00;;;;;;5054435;28;20028;-62
2021/04/09 06:02:44;;;;;;;7.38;2.72;;;15.00;96.60;;;;;;5054230;28;20021;-61
2021/04/09 06:05:10;;;;;;;5.95;2.40;;;15.00;96.50;;;;;;5054973;28;20472;-60
2021/04/09 06:07:36;;;;;;;9.70;3.03;;;15.00;96.70;;;;;;5069707;28;20078;-62
2021/04/09 06:10:03;;;;;;;7.70;3.50;;;15.00;96.40;;;;;;5064380;28;20068;-61
2021/04/09 06:12:29;;;;;;;12.10;4.53;;;15.00;95.80;;;;;;5054343;28;20078;-61
2021/04/09 06:14:55;;;;;;;9.90;5.57;;;14.80;94.60;;;;;;5054059;28;20052;-65
2021/04/09 06:17:20;;;;;;;13.82;6.68;;;14.60;93.60;;;;;;5071496;28;20031;-63
2021/04/09 06:19:49;;;;;;;9.82;6.90;;;14.50;93.20;;;;;;5073955;28;20035;-64
2021/04/09 06:22:15;;;;;;;12.70;6.80;;;14.50;92.70;;;;;;5073898;28;20476;-64
2021/04/09 06:24:42;;;;;;;10.88;6.50;;;14.40;92.20;;;;;;5073861;28;20035;-61
2021/04/09 06:27:08;;;;;;;9.70;5.38;;;14.40;91.70;;;;;;5073170;28;20484;-59
2021/04/09 06:29:34;;;;;;;12.93;6.85;;;14.30;90.70;;;;;;5073697;28;20040;-62
2021/04/09 06:32:00;;;;;;;12.75;6.25;;;14.30;90.50;;;;;;5073246;28;20545;-63
2021/04/09 06:34:25;;;;;;;9.23;6.00;;;14.20;90.30;;;;;;5054027;28;20032;-64
2021/04/09 06:36:51;;;;;;;8.77;5.20;;;14.20;90.10;;;;;;5053519;28;20477;-63
2021/04/09 06:39:16;;;;;;;8.70;5.50;;;14.20;90.60;;;;;;5056246;28;20107;-64
2021/04/09 06:41:42;;;;;;;10.00;4.95;;;14.30;90.40;;;;;;5072145;28;20051;-63
2021/04/09 06:44:09;;;;;;;6.70;4.65;;;14.40;90.50;;;;;;5070833;28;20035;-63
2021/04/09 06:46:35;;;;;;;6.60;3.53;;;14.40;90.30;;;;;;5071511;28;20032;-64
2021/04/09 06:49:01;;;;;;;8.98;3.92;;;14.50;90.00;;;;;;5069108;28;20123;-64
2021/04/09 06:51:27;;;;;;;8.25;3.60;;;14.50;90.10;;;;;;5073115;28;20112;-64
2021/04/09 06:53:53;;;;;;;7.40;3.72;;;14.50;90.40;;;;;;5073281;28;20032;-64
2021/04/09 06:56:21;;;;;;;5.60;3.65;;;14.50;90.60;;;;;;5073315;28;20029;-64
2021/04/09 06:58:48;;;;;;;5.53;3.50;;;14.50;90.70;;;;;;5071920;28;20525;-64
2021/04/09 07:01:16;;;;;;;6.13;3.60;;;14.50;90.80;;;;;;5071698;28;20127;-64
2021/04/09 07:03:42;;;;;;;7.53;3.53;;;14.40;90.80;;;;;;5071718;28;20169;-64
2021/04/09 07:06:09;;;;;;;5.78;3.70;;;14.50;90.90;;;;;;5072438;28;20059;-64
2021/04/09 07:08:39;;;;;;;5.47;3.30;;;14.50;91.00;;;;;;5073019;28;20037;-64
2021/04/09 07:11:05;;;;;;;6.93;3.50;;;14.50;90.90;;;;;;5073071;28;20012;-65
2021/04/09 07:13:30;;;;;;;5.03;3.28;;;14.40;91.00;;;;;;5070892;28;20031;-64
2021/04/09 07:15:56;;;;;;;7.10;3.08;;;14.40;91.00;;;;;;5072231;28;20073;-65
2021/04/09 07:18:46;;;;;;;5.63;3.25;;;14.50;91.10;;;;;;5071601;28;20105;-64
2021/04/09 07:21:26;;;;;;;7.45;3.30;;;14.50;91.00;;;;;;5052357;28;20028;-64
2021/04/09 07:24:10;;;;;;;8.05;3.30;;;14.40;90.90;;;;;;5052766;28;20036;-63
2021/04/09 07:26:47;;;;;;;5.03;3.22;;;14.40;91.20;;;;;;5052582;28;20025;-63
2021/04/09 07:29:37;;;;;;;7.07;3.05;;;14.40;91.30;;;;;;5062796;28;20519;-66
2021/04/09 07:32:14;;;;;;;7.10;3.28;;;14.40;92.00;;;;;;5071487;28;20538;-66
2021/04/09 07:34:49;;;;;;;9.52;3.28;;;15.40;91.50;;;;;;5072368;28;20103;-66
2021/04/09 07:37:14;;;;;;;5.28;2.88;;;16.70;90.20;;;;;;5072397;28;20043;-64
2021/04/09 07:39:40;;;;;;;6.13;3.17;;;17.70;88.80;;;;;;5062142;28;20033;-66
2021/04/09 07:42:07;;;;;;;8.18;2.80;;;18.40;86.30;;;;;;5067239;28;20468;-66
2021/04/09 07:44:33;;;;;;;4.75;2.78;;;19.00;85.20;;;;;;5087026;28;20423;-66
2021/04/09 07:47:08;;;;;;;4.78;2.55;;;19.40;84.20;;;;;;5071327;28;20415;-66
2021/04/09 07:49:34;;;;;;;5.72;2.60;;;19.80;83.50;;;;;;5070957;28;20558;-65
2021/04/09 07:52:14;;;;;;;5.72;2.90;;;20.10;82.90;;;;;;5071584;28;20052;-67
2021/04/09 07:54:41;;;;;;;4.25;2.85;;;20.40;82.10;;;;;;5071015;28;20060;-64
2021/04/09 07:57:07;;;;;;;5.15;2.50;;;20.30;82.40;;;;;;5071680;28;20028;-66
2021/04/09 07:59:37;;;;;;;4.80;2.67;;;20.60;82.30;;;;;;5070610;28;20031;-64
2021/04/09 08:02:04;;;;;;;5.40;2.50;;;21.00;81.70;;;;;;5071518;28;20110;-64
2021/04/09 08:04:41;;;;;;;5.30;2.58;;;21.30;81.10;;;;;;5071221;28;20017;-64
2021/04/09 08:07:07;;;;;;;3.92;2.60;;;21.70;80.70;;;;;;5071552;28;20038;-64
2021/04/09 08:09:50;;;;;;;6.47;2.67;;;22.00;80.30;;;;;;5069708;28;20048;-64
2021/04/09 08:12:29;;;;;;;5.07;2.55;;;22.20;79.90;;;;;;5069829;28;20021;-64
2021/04/09 08:14:56;;;;;;;4.78;2.38;;;22.50;80.10;;;;;;5058450;28;20430;-64
2021/04/09 08:17:24;;;;;;;4.25;2.25;;;22.70;80.90;;;;;;5070997;28;20020;-64
2021/04/09 08:19:55;;;;;;;4.65;2.22;;;22.90;81.10;;;;;;5071423;28;20033;-64
2021/04/09 08:22:22;;;;;;;5.85;2.35;;;23.10;80.40;;;;;;5071183;28;20024;-65
2021/04/09 08:24:49;;;;;;;4.18;2.28;;;23.40;80.30;;;;;;5070018;28;20071;-65
2021/04/09 08:27:15;;;;;;;6.20;2.40;;;23.70;80.20;;;;;;5070630;28;20020;-65
2021/04/09 08:29:43;;;;;;;4.20;2.30;;;23.90;80.00;;;;;;5070985;28;20043;-65
2021/04/09 08:32:10;;;;;;;3.60;2.15;;;24.10;80.00;;;;;;5071223;28;20028;-65
2021/04/09 08:34:37;;;;;;;4.03;1.90;;;24.40;79.90;;;;;;5071245;28;20025;-65
2021/04/09 08:37:03;;;;;;;5.50;2.33;;;24.60;79.80;;;;;;5070998;28;20431;-62
2021/04/09 08:39:29;;;;;;;5.82;2.20;;;24.80;79.70;;;;;;5070737;28;20028;-64
2021/04/09 08:41:56;;;;;;;3.63;2.35;;;24.30;82.10;;;;;;5070907;28;20033;-64
2021/04/09 08:44:23;;;;;;;5.25;2.70;;;23.50;83.40;;;;;;5070854;28;20048;-66
2021/04/09 08:46:49;;;;;;;4.78;1.98;;;23.80;83.20;;;;;;5070621;28;20036;-64
2021/04/09 08:49:16;;;;;;;5.40;2.22;;;24.40;82.10;;;;;;5070721;28;20029;-65
2021/04/09 08:51:43;;;;;;;4.05;2.40;;;24.40;82.20;;;;;;5086430;28;20074;-65
2021/04/09 08:54:21;;;;;;;4.30;2.03;;;23.70;85.60;;;;;;5070936;28;20096;-64
2021/04/09 08:56:47;;;;;;;5.07;2.35;;;23.70;84.70;;;;;;5070959;28;20017;-65
2021/04/09 08:59:13;;;;;;;3.40;1.90;;;24.40;83.50;;;;;;5070904;28;20499;-65
2021/04/09 09:01:39;;;;;;;4.47;2.10;;;24.50;83.50;;;;;;5070840;28;20108;-65
2021/04/09 09:04:22;;;;;;;2.92;1.73;;;23.90;86.50;;;;;;5071095;28;20104;-66
2021/04/09 09:06:49;;;;;;;4.20;2.00;;;23.60;85.90;;;;;;5070684;28;20074;-63
2021/04/09 09:09:32;;;;;;;4.28;1.95;;;24.30;84.80;;;;;;5059309;28;20036;-65
2021/04/09 09:12:02;;;;;;;2.72;2.10;;;24.50;84.50;;;;;;5074494;28;20522;-64
2021/04/09 09:14:34;;;;;;;3.83;1.98;;;23.90;87.70;;;;;;5074010;28;20062;-64
2021/04/09 09:17:18;;;;;;;3.08;1.88;;;23.70;87.00;;;;;;5074196;28;20025;-66
2021/04/09 09:20:07;;;;;;;3.92;1.98;;;24.60;85.40;;;;;;5073887;28;20021;-64
2021/04/09 09:22:50;;;;;;;4.05;2.22;;;24.60;85.50;;;;;;5074442;28;20028;-65
2021/04/09 09:25:29;;;;;;;5.78;2.05;;;24.00;88.90;;;;;;5061568;28;20032;-63
2021/04/09 09:27:54;;;;;;;3.42;1.80;;;23.80;88.40;;;;;;5074103;28;20082;-63
2021/04/09 09:30:38;;;;;;;6.20;2.13;;;24.60;86.90;;;;;;5074327;28;20068;-65
2021/04/09 09:33:26;;;;;;;4.00;2.28;;;24.10;82.20;;;;;;5074328;28;20419;-65
2021/04/09 09:36:10;;;;;;;4.68;2.28;;;22.80;79.40;;;;;;5074005;28;20510;-66
2021/04/09 09:38:45;;;;;;;4.15;2.67;;;22.00;80.60;;;;;;5074068;28;20052;-66
2021/04/09 09:41:11;;;;;;;5.15;2.28;;;21.60;81.00;;;;;;5074299;28;20063;-66
2021/04/09 09:43:36;;;;;;;4.03;2.42;;;21.30;80.80;;;;;;5073762;28;20052;-65
2021/04/09 09:46:03;;;;;;;4.47;2.58;;;21.20;81.60;;;;;;5073471;28;20033;-66
2021/04/09 09:48:28;;;;;;;5.22;2.80;;;21.10;81.10;;;;;;5073602;28;20081;-65
2021/04/09 09:50:54;;;;;;;3.75;2.40;;;21.00;81.40;;;;;;5073801;28;20032;-66
2021/04/09 09:53:20;;;;;;;6.32;2.47;;;20.80;81.80;;;;;;5073529;28;20027;-65
2021/04/09 09:55:47;;;;;;;5.50;2.72;;;20.70;81.50;;;;;;5073754;28;20031;-65
2021/04/09 09:58:17;;;;;;;3.92;2.50;;;20.70;81.40;;;;;;5072762;28;20353;-66
2021/04/09 10:00:53;;;;;;;4.00;2.58;;;20.60;81.40;;;;;;5072283;28;20037;-65
2021/04/09 10:03:35;;;;;;;3.50;2.58;;;20.60;81.50;;;;;;5071860;28;20021;-66
2021/04/09 10:06:10;;;;;;;3.28;2.30;;;20.50;81.90;;;;;;5066889;28;20017;-67
2021/04/09 10:08:37;;;;;;;4.63;2.30;;;20.50;82.00;;;;;;5073500;28;20097;-68
2021/04/09 10:11:08;;;;;;;5.97;2.78;;;20.40;82.20;;;;;;5071370;28;20036;-68
2021/04/09 10:13:41;;;;;;;3.90;2.65;;;20.50;82.80;;;;;;5073142;28;20024;-66
2021/04/09 10:16:14;;;;;;;4.47;2.50;;;20.60;83.40;;;;;;5073621;28;20443;-66
2021/04/09 10:18:47;;;;;;;4.53;2.73;;;20.70;81.60;;;;;;5072315;28;20024;-69
2021/04/09 10:21:17;;;;;;;5.63;2.42;;;20.50;84.20;;;;;;5066217;28;20282;-66
2021/04/09 10:23:45;;;;;;;5.07;2.53;;;20.50;84.10;;;;;;5065676;28;20025;-67
2021/04/09 10:26:13;;;;;;;5.53;2.53;;;20.60;83.80;;;;;;5070442;28;20029;-69
2021/04/09 10:28:40;;;;;;;3.40;2.33;;;20.20;76.90;;;;;;5073313;28;20131;-68
2021/04/09 10:31:09;;;;;;;4.35;2.60;;;19.80;77.00;;;;;;5064838;28;20476;-67
2021/04/09 10:33:36;;;;;;;3.80;2.67;;;19.60;78.00;;;;;;5071562;28;20036;-66
2021/04/09 10:36:22;;;;;;;3.67;2.70;;;19.50;78.30;;;;;;5072792;28;20040;-67
2021/04/09 10:38:51;;;;;;;3.80;2.40;;;19.40;78.60;;;;;;5072473;28;20028;-68
2021/04/09 10:41:28;;;;;;;4.53;3.00;;;19.30;78.60;;;;;;5074733;28;20020;-66
2021/04/09 10:44:15;;;;;;;5.20;3.38;;;19.20;78.60;;;;;;5074969;28;20028;-67
2021/04/09 10:46:42;;;;;;;4.72;3.45;;;19.20;78.80;;;;;;5073009;28;20020;-66
2021/04/09 10:49:14;;;;;;;5.90;3.40;;;19.30;78.50;;;;;;5072582;28;20032;-66
2021/04/09 10:51:43;;;;;;;4.97;3.25;;;19.30;78.80;;;;;;5072708;28;20033;-66
2021/04/09 10:54:11;;;;;;;4.82;3.05;;;19.30;78.80;;;;;;5073205;28;20028;-66
2021/04/09 10:56:38;;;;;;;6.72;3.28;;;19.20;78.80;;;;;;5072377;28;20025;-65
2021/04/09 10:59:08;;;;;;;5.75;3.15;;;19.30;79.00;;;;;;5072281;28;20024;-67
2021/04/09 11:01:34;;;;;;;4.93;2.75;;;19.30;79.10;;;;;;5071980;28;20033;-65
2021/04/09 11:04:00;;;;;;;6.68;3.17;;;19.20;79.10;;;;;;5072229;28;20491;-66
2021/04/09 11:06:27;;;;;;;4.68;3.00;;;19.20;79.10;;;;;;5072214;28;20042;-66
2021/04/09 11:09:08;;;;;;;6.95;3.30;;;19.20;79.20;;;;;;5072466;28;20381;-66
2021/04/09 11:11:36;;;;;;;5.00;2.85;;;19.40;78.80;;;;;;5071970;28;20020;-66
2021/04/09 11:14:19;;;;;;;4.53;2.90;;;19.40;79.20;;;;;;5072124;28;20094;-67
2021/04/09 11:16:55;;;;;;;5.43;2.85;;;19.30;79.40;;;;;;5072024;28;20021;-64
2021/04/09 11:19:34;;;;;;;5.25;3.13;;;19.30;79.50;;;;;;5072057;28;20020;-67
2021/04/09 11:22:04;;;;;;;4.32;3.00;;;19.20;79.50;;;;;;5071964;28;20033;-67
2021/04/09 11:24:35;;;;;;;5.57;3.00;;;19.20;79.60;;;;;;5071994;28;20523;-67
2021/04/09 11:27:19;;;;;;;6.30;2.90;;;19.30;79.80;;;;;;5072067;28;20012;-67
2021/04/09 11:29:45;;;;;;;6.07;2.90;;;19.30;79.90;;;;;;5071888;28;20032;-66
2021/04/09 11:32:20;;;;;;;6.88;3.30;;;19.30;80.10;;;;;;5087397;28;20036;-68
2021/04/09 11:34:51;;;;;;;8.00;3.35;;;19.50;80.20;;;;;;5074122;28;20036;-67
2021/04/09 11:37:18;;;;;;;7.32;3.05;;;19.50;81.30;;;;;;5091877;28;20107;-70
2021/04/09 11:39:55;;;;;;;6.20;2.90;;;19.40;82.00;;;;;;5072086;28;20032;-69
2021/04/09 11:42:34;;;;;;;7.72;3.13;;;19.40;82.10;;;;;;5066940;28;20565;-69
2021/04/09 11:45:06;;;;;;;8.18;3.15;;;19.40;81.50;;;;;;5069618;28;20024;-66
2021/04/09 11:47:40;;;;;;;5.90;2.70;;;19.50;83.30;;;;;;5070233;28;20051;-65
2021/04/09 11:50:17;;;;;;;6.95;2.83;;;19.50;83.10;;;;;;5067225;28;20040;-67
2021/04/09 11:53:02;;;;;;;7.88;2.90;;;19.60;82.90;;;;;;5068862;28;20089;-68
2021/04/09 11:55:40;;;;;;;5.95;2.60;;;19.70;82.80;;;;;;5068427;28;20017;-67
2021/04/09 11:58:20;;;;;;;5.10;2.60;;;19.80;82.70;;;;;;5067940;28;20044;-67
2021/04/09 12:00:55;;;;;;;6.10;2.92;;;19.90;82.80;;;;;;5069680;28;20028;-67
2021/04/09 12:03:36;;;;;;;5.65;2.42;;;20.00;82.80;;;;;;5085225;28;20074;-67
2021/04/09 12:06:15;;;;;;;7.13;2.90;;;20.00;82.70;;;;;;5071366;28;20538;-67
2021/04/09 12:08:41;;;;;;;6.00;3.05;;;20.00;82.60;;;;;;5071696;28;20072;-67
2021/04/09 12:11:08;;;;;;;5.65;2.88;;;20.00;82.60;;;;;;5070106;28;20016;-67
2021/04/09 12:13:44;;;;;;;6.20;2.55;;;20.00;82.50;;;;;;5070810;28;20107;-67
2021/04/09 12:16:10;;;;;;;4.65;2.30;;;20.00;82.40;;;;;;5071561;28;20361;-67
2021/04/09 12:18:36;;;;;;;4.97;2.30;;;20.00;82.40;;;;;;5070352;28;20469;-67
2021/04/09 12:21:02;;;;;;;4.35;2.42;;;20.00;82.20;;;;;;5069459;28;20020;-65
2021/04/09 12:23:28;;;;;;;6.35;2.92;;;20.00;82.20;;;;;;5069671;28;20032;-67
2021/04/09 12:25:57;;;;;;;10.75;2.78;;;19.90;83.30;;;;;;5070806;28;20376;-67
2021/04/09 12:28:23;;;;;;;12.10;3.30;;;19.90;85.50;;;;;;5072665;28;20047;-67
2021/04/09 12:30:49;;;;;;;6.75;2.90;;;19.90;88.50;;;;;;5069825;28;20342;-67
2021/04/09 12:33:15;;;;;;;11.02;3.13;;;19.90;89.60;;;;;;5069674;28;20385;-68
2021/04/09 12:35:40;;;;;;;7.35;2.90;;;20.00;89.40;;;;;;5068554;28;20476;-67
2021/04/09 12:38:06;;;;;;;6.43;2.70;;;20.00;89.20;;;;;;5071077;28;20074;-67
2021/04/09 12:40:31;;;;;;;8.90;3.17;;;19.90;88.90;;;;;;5069288;28;20057;-67
2021/04/09 12:42:58;;;;;;;10.90;2.83;;;19.90;88.30;;;;;;5070832;28;20472;-68
2021/04/09 12:45:24;;;;;;;8.30;2.50;;;19.90;89.10;;;;;;5072817;28;20430;-67
2021/04/09 12:47:50;;;;;;;8.30;2.50;;;20.00;89.80;;;;;;5074361;28;20170;-67
2021/04/09 12:50:15;;;;;;;8.00;2.63;;;20.00;89.60;;;;;;5070969;28;20037;-67
2021/04/09 12:52:41;;;;;;;10.57;2.60;;;20.00;89.70;;;;;;5065657;28;20028;-67
2021/04/09 12:55:07;;;;;;;5.22;2.13;;;20.00;89.80;;;;;;5072802;28;20063;-68
2021/04/09 12:57:33;;;;;;;9.35;2.30;;;20.00;88.00;;;;;;5071728;28;20020;-68